KOGD Airport Information

Runway Information
Runway 03 Length 8103 ft width 150 ft
Elevation 4473 ft Threshold 0 ft Heading 45
Runway 21 Length 8103 ft Width 150 ft
Elevation 4415 ft Threshold 851 ft Heading 225
Runway 07 Length 5600 ft width 150 ft
Elevation 4448 ft Threshold 0 ft Heading 90
Runway 25 Length 5600 ft Width 150 ft
Elevation 4429 ft Threshold 159 ft Heading 270
Runway 16 Length 5195 ft width 150 ft
Elevation 4436 ft Threshold 0 ft Heading 180
Runway 34 Length 5195 ft Width 150 ft
Elevation 4457 ft Threshold 0 ft Heading 360
Airport Frequencies
Type A/D Name APP/DEP Frequency 121.1 MHZ
Type ASOS Name ASOS Frequency 125.55 MHZ
Type ATIS Name ATIS Frequency 125.55 MHZ
Type CTAF Name CTAF Frequency 118.7 MHZ
Type GND Name GND Frequency 121.7 MHZ
Type RDO Name CEDAR CITY Frequency 122.45 MHZ
Type TWR Name TWR Frequency 118.7 MHZ
Type UNIC Name UNICOM Frequency 122.95 MHZ
Airport Navaids
Airport Weather Information & NOTAM
ADDS - METARS form results

(2144 UTC 12 December 2018)
Data provider http://aviationweather.gov/metar/data/
 
METAR text: KOGD 122121Z 08004KT 1SM -SN BR BKN019 BKN026 OVC033 00/M02 A3014 RMK AO2 P0001 T00001022
Conditions at: KOGD (OGDEN , UT, US) observed 2121 UTC 12 December 2018
Temperature: 0.0°C (32°F)
Dewpoint: -2.2°C (28°F) [RH = 85%]
Pressure (altimeter): 30.14 inches Hg (1020.7 mb)
Winds: from the E (80 degrees) at 5 MPH (4 knots; 2.1 m/s)
Visibility: 1.00 miles (1.61 km)
Ceiling: 1900 feet AGL
Clouds: broken clouds at 1900 feet AGL
broken clouds at 2600 feet AGL
overcast cloud deck at 3300 feet AGL
Weather: -SN BR  (light snow, mist)

METAR text: KOGD 122053Z 17003KT 2 1/2SM -SN BKN025 BKN032 OVC047 01/M03 A3013 RMK AO2 SNB43 SLP214 P0001 60001 T00061033 53006
Conditions at: KOGD (OGDEN , UT, US) observed 2053 UTC 12 December 2018
Temperature: 0.6°C (33°F)
Dewpoint: -3.3°C (26°F) [RH = 75%]
Pressure (altimeter): 30.13 inches Hg (1020.4 mb)
[Sea-level pressure: 1021.4 mb]
Winds: from the S (170 degrees) at 3 MPH (3 knots; 1.5 m/s)
Visibility: 2.50 miles (4.02 km)
Ceiling: 2500 feet AGL
Clouds: broken clouds at 2500 feet AGL
broken clouds at 3200 feet AGL
overcast cloud deck at 4700 feet AGL
Weather: -SN  (light snow)

METAR text: KOGD 122051Z 16003KT 2 1/2SM -SN FEW022 BKN028 OVC038 01/M03 A3013 RMK AO2 SNB43 P0001
Conditions at: KOGD (OGDEN , UT, US) observed 2051 UTC 12 December 2018
Temperature: 1.0°C (34°F)
Dewpoint: -3.0°C (27°F) [RH = 75%]
Pressure (altimeter): 30.13 inches Hg (1020.4 mb)
Winds: from the SSE (160 degrees) at 3 MPH (3 knots; 1.5 m/s)
Visibility: 2.50 miles (4.02 km)
Ceiling: 2800 feet AGL
Clouds: few clouds at 2200 feet AGL
broken clouds at 2800 feet AGL
overcast cloud deck at 3800 feet AGL
Weather: -SN  (light snow)

Forecast for: KOGD (OGDEN , UT, US)
Text: KOGD 122110Z 1221/1318 VRB04KT 2SM -SHSN BR BKN015 OVC025
Forecast period: 2100 to 2300 UTC 12 December 2018
Forecast type: FROM: standard forecast or significant change
Winds: variable direction winds at 5 MPH (4 knots; 2.1 m/s)
Visibility: 2.00 miles (3.22 km)
Ceiling: 1500 feet AGL
Clouds: broken clouds at 1500 feet AGL
overcast cloud deck at 2500 feet AGL
Weather: -SHSN BR  (light snow showers, mist)
Text: FM122300 31010G17KT P6SM VCSH SCT020 OVC040
Forecast period: 2300 UTC 12 December 2018 to 0100 UTC 13 December 2018
Forecast type: FROM: standard forecast or significant change
Winds: from the NW (310 degrees) at 12 MPH (10 knots; 5.1 m/s)
gusting to 20 MPH (17 knots; 8.7 m/s)
Visibility: 6 or more miles 10+ km)
Ceiling: 4000 feet AGL
Clouds: scattered clouds at 2000 feet AGL
overcast cloud deck at 4000 feet AGL
Weather: VCSH  (showers in vicinity)
Text: FM130100 18005KT P6SM VCSH SCT060 SCT200
Forecast period: 0100 to 1800 UTC 13 December 2018
Forecast type: FROM: standard forecast or significant change
Winds: from the S (180 degrees) at 6 MPH (5 knots; 2.6 m/s)
Visibility: 6 or more miles 10+ km)
Ceiling: at least 12,000 feet AGL
Clouds: scattered clouds at 6000 feet AGL
scattered clouds at 20000 feet AGL
Weather: VCSH  (showers in vicinity)